Time;durP1;ratioP1;P1;durP2;ratioP2;P2;SDS_P1;SDS_P2;PMS_P1;PMS_P2;Temp;Humidity;BMP_temperature;BMP_pressure;BME280_temperature;BME280_humidity;BME280_pressure;Samples;Min_cycle;Max_cycle;Signal;HPM_P1;HPM_P2
2022/10/02 00:02:12;;;;;;;29.23;6.60;;;17.20;99.90;;;16.46;100.00;101716.19;5076571;23;20010;-75
2022/10/02 00:04:22;;;;;;;23.55;4.88;;;17.10;99.90;;;16.49;100.00;101723.84;5074641;23;20065;-75
2022/10/02 00:06:25;;;;;;;22.77;5.50;;;17.20;99.90;;;16.45;100.00;101720.72;5073144;23;20049;-75
2022/10/02 00:08:38;;;;;;;21.52;4.43;;;17.20;99.90;;;16.46;100.00;101718.88;5073323;23;20468;-75
2022/10/02 00:10:51;;;;;;;28.85;4.88;;;17.20;99.90;;;16.48;100.00;101728.38;5073344;23;20009;-75
2022/10/02 00:13:00;;;;;;;30.23;5.75;;;17.20;99.90;;;16.46;100.00;101724.19;5073457;23;20010;-75
2022/10/02 00:15:17;;;;;;;25.80;5.93;;;17.20;99.90;;;16.44;100.00;101721.72;5073189;23;20006;-75
2022/10/02 00:17:28;;;;;;;26.50;5.43;;;17.10;99.90;;;16.44;100.00;101731.53;5073442;23;20065;-75
2022/10/02 00:19:29;;;;;;;24.45;5.57;;;17.10;99.90;;;16.42;100.00;101713.06;5073566;23;20029;-75
2022/10/02 00:21:49;;;;;;;23.02;4.35;;;17.10;99.90;;;16.44;100.00;101719.06;5098309;23;20006;-75
2022/10/02 00:24:07;;;;;;;22.00;5.38;;;17.20;99.90;;;16.41;100.00;101721.22;5048337;23;20443;-75
2022/10/02 00:26:26;;;;;;;31.00;5.55;;;17.20;99.90;;;16.43;100.00;101720.03;5048540;23;20010;-75
2022/10/02 00:28:39;;;;;;;32.58;6.38;;;17.10;99.90;;;16.44;100.00;101721.72;5073859;23;20174;-75
2022/10/02 00:31:06;;;;;;;33.80;6.40;;;17.10;99.90;;;16.44;100.00;101744.84;5074432;23;20088;-75
2022/10/02 00:33:41;;;;;;;21.20;5.20;;;17.20;99.90;;;16.44;100.00;101736.84;5098612;23;20005;-75
2022/10/02 00:36:03;;;;;;;30.65;5.82;;;17.10;99.90;;;16.42;100.00;101737.03;5098256;23;20017;-75
2022/10/02 00:38:53;;;;;;;28.10;5.88;;;17.10;99.90;;;16.41;100.00;101742.53;5076382;23;20006;-75
2022/10/02 00:41:38;;;;;;;32.78;6.38;;;17.10;99.90;;;16.44;100.00;101745.69;5066049;23;20039;-75
2022/10/02 00:43:59;;;;;;;31.33;6.55;;;17.10;99.90;;;16.37;100.00;101746.50;5072209;23;20017;-75
2022/10/02 00:46:16;;;;;;;30.20;6.18;;;17.10;99.90;;;16.27;100.00;101741.41;5098850;23;20013;-75
2022/10/02 00:48:58;;;;;;;21.80;5.93;;;17.00;99.90;;;16.23;100.00;101739.22;5073611;23;20459;-75
2022/10/02 00:51:33;;;;;;;30.90;5.95;;;17.00;99.90;;;16.20;100.00;101740.41;5098208;23;20012;-75
2022/10/02 00:53:57;;;;;;;28.52;7.55;;;16.90;99.90;;;16.19;100.00;101741.38;5098331;23;20439;-75
2022/10/02 00:56:04;;;;;;;26.00;5.68;;;16.90;99.90;;;16.18;100.00;101726.44;5072699;23;20045;-75
2022/10/02 00:58:32;;;;;;;30.25;5.80;;;16.90;99.90;;;16.21;100.00;101728.75;5098375;23;20010;-75
2022/10/02 01:00:33;;;;;;;31.73;5.80;;;16.90;99.90;;;16.25;100.00;101722.06;5098044;23;20091;-75
2022/10/02 01:02:46;;;;;;;31.75;6.55;;;16.90;99.90;;;16.23;100.00;101728.56;5098530;23;20436;-75
2022/10/02 01:04:47;;;;;;;38.08;7.60;;;16.90;99.90;;;16.20;100.00;101726.25;5098338;23;20431;-75
2022/10/02 01:06:48;;;;;;;37.45;7.05;;;16.90;99.90;;;16.26;100.00;101723.75;5071929;23;20080;-75
2022/10/02 01:08:50;;;;;;;32.60;6.50;;;16.90;99.90;;;16.29;100.00;101723.41;5072505;23;20056;-75
2022/10/02 01:10:51;;;;;;;36.90;7.50;;;17.00;99.90;;;16.29;100.00;101730.56;5072780;23;20010;-75
2022/10/02 01:12:54;;;;;;;29.02;6.65;;;17.00;99.90;;;16.25;100.00;101719.41;5047932;23;20052;-75
2022/10/02 01:14:55;;;;;;;24.67;5.60;;;17.00;99.90;;;16.36;100.00;101734.22;5072443;23;20017;-75
2022/10/02 01:16:56;;;;;;;37.20;6.32;;;17.00;99.90;;;16.33;100.00;101722.09;5098310;23;20025;-75
2022/10/02 01:18:57;;;;;;;31.33;6.00;;;17.00;99.90;;;16.40;100.00;101722.22;5048121;23;20451;-75
2022/10/02 01:21:17;;;;;;;36.30;7.43;;;17.10;99.90;;;16.42;100.00;101721.06;5072123;23;20050;-75
2022/10/02 01:23:27;;;;;;;33.78;6.95;;;17.10;99.90;;;16.42;100.00;101728.22;5098291;23;20068;-75
2022/10/02 01:25:28;;;;;;;26.67;6.30;;;17.10;99.90;;;16.37;100.00;101723.38;5072130;23;20032;-75
2022/10/02 01:27:30;;;;;;;22.92;5.68;;;17.10;99.90;;;16.40;100.00;101724.88;5072120;23;20002;-75
2022/10/02 01:29:31;;;;;;;27.92;6.50;;;17.10;99.90;;;16.38;100.00;101717.06;5096863;23;20009;-75
2022/10/02 01:31:34;;;;;;;35.08;6.28;;;17.10;99.90;;;16.41;100.00;101719.41;5098442;23;20002;-75
2022/10/02 01:33:40;;;;;;;24.00;6.40;;;17.10;99.90;;;16.39;100.00;101713.41;5048027;23;20007;-75
2022/10/02 01:35:42;;;;;;;35.53;7.47;;;17.10;99.90;;;16.39;100.00;101707.25;5071588;23;20017;-75
2022/10/02 01:37:45;;;;;;;27.42;6.93;;;17.10;99.90;;;16.38;100.00;101702.91;5072375;23;20463;-75
2022/10/02 01:39:46;;;;;;;27.00;6.30;;;17.10;99.90;;;16.40;100.00;101695.56;5072424;23;20029;-75
2022/10/02 01:41:47;;;;;;;27.73;6.25;;;17.10;99.90;;;16.37;100.00;101701.25;5074062;23;20002;-75
2022/10/02 01:43:52;;;;;;;31.77;5.25;;;17.10;99.90;;;16.34;100.00;101699.75;5074008;23;20029;-75
2022/10/02 01:46:17;;;;;;;25.92;6.45;;;17.10;99.90;;;16.34;100.00;101701.59;5073990;23;20016;-75
2022/10/02 01:48:44;;;;;;;28.35;6.13;;;17.10;99.90;;;16.34;100.00;101705.09;5075469;23;20009;-75
2022/10/02 01:51:31;;;;;;;30.65;7.10;;;17.10;99.90;;;16.35;100.00;101700.59;5073844;23;20016;-75
2022/10/02 01:54:09;;;;;;;26.58;6.07;;;17.10;99.90;;;16.36;100.00;101695.13;5075745;23;20073;-75
2022/10/02 01:56:57;;;;;;;35.75;6.78;;;17.00;99.90;;;16.34;100.00;101686.44;5074173;23;20061;-75
2022/10/02 01:59:21;;;;;;;28.35;6.00;;;17.00;99.90;;;16.41;100.00;101695.44;5048353;23;20066;-75
2022/10/02 02:01:26;;;;;;;38.17;5.85;;;17.10;99.90;;;16.38;100.00;101700.25;5075488;23;20002;-75
2022/10/02 02:03:43;;;;;;;31.85;6.93;;;17.10;99.90;;;16.36;100.00;101696.94;5075737;23;20013;-75
2022/10/02 02:05:59;;;;;;;37.80;7.00;;;17.10;99.90;;;16.40;100.00;101704.41;5073670;23;20141;-75
2022/10/02 02:08:33;;;;;;;30.75;6.22;;;17.10;99.90;;;16.40;100.00;101693.75;5075212;23;20005;-75
2022/10/02 02:10:48;;;;;;;39.67;6.80;;;17.10;99.90;;;16.41;100.00;101695.44;5073995;23;20470;-75
2022/10/02 02:13:12;;;;;;;24.73;6.53;;;17.10;99.90;;;16.38;100.00;101698.44;5075217;23;20313;-75
2022/10/02 02:15:25;;;;;;;30.85;6.25;;;17.10;99.90;;;16.42;100.00;101701.59;5073899;23;20489;-75
2022/10/02 02:17:49;;;;;;;26.15;6.40;;;17.10;99.90;;;16.36;100.00;101697.78;5073759;23;20006;-75
2022/10/02 02:20:21;;;;;;;30.33;6.22;;;17.10;99.90;;;16.33;100.00;101702.59;5074212;23;20010;-75
2022/10/02 02:22:35;;;;;;;26.27;6.32;;;17.10;99.90;;;16.30;100.00;101697.63;5068776;23;20016;-75
2022/10/02 02:25:21;;;;;;;25.92;5.22;;;17.00;99.90;;;16.28;100.00;101708.41;5073239;23;20556;-75
2022/10/02 02:27:27;;;;;;;23.55;4.75;;;17.00;99.90;;;16.33;100.00;101719.41;5067809;23;20013;-75
2022/10/02 02:29:33;;;;;;;17.15;4.93;;;17.00;99.90;;;16.31;100.00;101715.22;5073983;23;20010;-74
2022/10/02 02:31:46;;;;;;;14.90;4.07;;;17.00;99.90;;;16.26;100.00;101713.09;5049435;23;20089;-74
2022/10/02 02:33:59;;;;;;;18.25;4.30;;;17.00;99.90;;;16.24;100.00;101709.78;5075139;23;20006;-75
2022/10/02 02:36:11;;;;;;;15.55;3.53;;;16.90;99.90;;;16.24;100.00;101712.44;5072973;23;20018;-75
2022/10/02 02:38:22;;;;;;;14.80;3.38;;;16.90;99.90;;;16.22;100.00;101711.75;5073597;23;20009;-75
2022/10/02 02:40:28;;;;;;;14.73;3.60;;;16.90;99.90;;;16.24;100.00;101712.44;5075124;23;20450;-75
2022/10/02 02:42:35;;;;;;;10.40;2.08;;;16.90;99.90;;;16.25;100.00;101710.59;5074031;23;20006;-75
2022/10/02 02:44:46;;;;;;;14.82;2.80;;;16.90;99.90;;;16.22;100.00;101702.97;5073359;23;20069;-74
2022/10/02 02:47:21;;;;;;;11.40;2.45;;;16.90;99.90;;;16.19;100.00;101698.78;5074914;23;20010;-74
2022/10/02 02:49:24;;;;;;;10.85;1.52;;;16.90;99.90;;;16.17;100.00;101706.13;5074845;23;20006;-74
2022/10/02 02:51:46;;;;;;;8.73;2.20;;;16.80;99.90;;;16.17;100.00;101713.28;5073012;23;20041;-74
2022/10/02 02:53:57;;;;;;;7.35;1.65;;;16.90;99.90;;;16.16;100.00;101715.09;5073667;23;20030;-74
2022/10/02 02:56:02;;;;;;;4.45;1.50;;;16.80;99.90;;;16.17;100.00;101707.94;5073453;23;20056;-75
2022/10/02 02:58:06;;;;;;;6.15;1.83;;;16.80;99.90;;;16.21;100.00;101717.28;5073441;23;20002;-74
2022/10/02 03:00:07;;;;;;;5.18;1.67;;;16.80;99.90;;;16.17;100.00;101716.78;5074977;23;20510;-75
2022/10/02 03:02:09;;;;;;;10.15;2.20;;;16.80;99.90;;;16.15;100.00;101716.13;5073416;23;20005;-74
2022/10/02 03:04:13;;;;;;;4.43;1.48;;;16.80;99.90;;;16.18;100.00;101712.28;5073596;23;20010;-75
2022/10/02 03:06:19;;;;;;;7.35;2.63;;;16.90;99.90;;;16.22;100.00;101722.41;5073095;23;20013;-75
2022/10/02 03:08:28;;;;;;;11.75;2.65;;;16.80;99.90;;;16.22;100.00;101725.06;5074783;23;20010;-74
2022/10/02 03:10:56;;;;;;;13.60;2.40;;;16.80;99.90;;;16.18;100.00;101730.91;5073318;23;20006;-75
2022/10/02 03:13:43;;;;;;;11.43;3.17;;;16.80;99.90;;;16.15;100.00;101721.44;5073265;23;20077;-75
2022/10/02 03:16:07;;;;;;;11.85;2.78;;;16.80;99.90;;;16.16;100.00;101733.72;5074440;23;20021;-75
2022/10/02 03:18:44;;;;;;;17.63;3.38;;;16.80;99.90;;;16.14;100.00;101721.59;5074764;23;20443;-74
2022/10/02 03:21:10;;;;;;;19.20;3.55;;;16.80;99.90;;;16.18;100.00;101728.25;5073021;23;20006;-75
2022/10/02 03:23:33;;;;;;;9.57;3.05;;;16.80;99.90;;;16.14;100.00;101726.91;5073554;23;20006;-75
2022/10/02 03:26:10;;;;;;;14.27;4.38;;;16.80;99.90;;;16.17;100.00;101734.56;5072827;23;20014;-75
2022/10/02 03:28:31;;;;;;;12.20;4.63;;;16.80;99.90;;;16.14;100.00;101717.09;5073139;23;20045;-74
2022/10/02 03:30:34;;;;;;;14.98;4.35;;;16.80;99.90;;;16.10;100.00;101726.41;5074641;23;20435;-75
2022/10/02 03:32:38;;;;;;;22.67;4.27;;;16.80;99.90;;;16.12;100.00;101715.63;5073189;23;20048;-74
2022/10/02 03:34:39;;;;;;;14.95;4.88;;;16.80;99.90;;;16.14;100.00;101714.44;5073079;23;20245;-75
2022/10/02 03:36:40;;;;;;;20.15;4.28;;;16.80;99.90;;;16.17;100.00;101708.78;5072449;23;20050;-75
2022/10/02 03:38:42;;;;;;;17.20;3.67;;;16.80;99.90;;;16.24;100.00;101715.09;5073117;23;20006;-75
2022/10/02 03:40:43;;;;;;;17.65;3.83;;;16.80;99.90;;;16.09;100.00;101713.28;5073277;23;20056;-75
2022/10/02 03:42:44;;;;;;;10.95;3.63;;;16.80;99.90;;;16.09;100.00;101710.63;5074519;23;20343;-75
2022/10/02 03:44:44;;;;;;;18.73;3.83;;;16.80;99.90;;;16.12;100.00;101712.97;5048895;23;20006;-75
2022/10/02 03:46:45;;;;;;;20.80;4.78;;;16.80;99.90;;;16.11;100.00;101708.63;5074512;23;20006;-75
2022/10/02 03:48:46;;;;;;;20.42;4.30;;;16.80;99.90;;;16.06;100.00;101709.13;5072557;23;20006;-75
2022/10/02 03:50:49;;;;;;;20.23;3.90;;;16.80;99.90;;;16.11;100.00;101714.78;5073024;23;20006;-75
2022/10/02 03:52:52;;;;;;;13.98;3.65;;;16.80;99.90;;;16.12;100.00;101710.28;5074438;23;20009;-75
2022/10/02 03:55:01;;;;;;;18.25;3.75;;;16.80;99.90;;;16.09;100.00;101713.28;5074276;23;20017;-75
2022/10/02 03:57:11;;;;;;;16.23;3.50;;;16.80;99.90;;;16.11;100.00;101714.78;5073124;23;20059;-75
2022/10/02 03:59:26;;;;;;;21.55;4.47;;;16.80;99.90;;;16.14;100.00;101708.28;5073128;23;20031;-75
2022/10/02 04:01:34;;;;;;;18.48;3.97;;;16.80;99.90;;;16.11;100.00;101712.13;5073047;23;20053;-75
2022/10/02 04:03:55;;;;;;;14.48;3.55;;;16.80;99.90;;;16.11;100.00;101711.28;5072986;23;20006;-75
2022/10/02 04:06:13;;;;;;;18.38;4.40;;;16.80;99.90;;;16.12;100.00;101715.63;5072507;23;20006;-75
2022/10/02 04:08:21;;;;;;;17.00;4.13;;;16.80;99.90;;;16.13;100.00;101710.13;5073065;23;20012;-75
2022/10/02 04:10:43;;;;;;;23.10;4.32;;;16.80;99.90;;;16.14;100.00;101713.59;5073112;23;20006;-76
2022/10/02 04:12:49;;;;;;;22.23;4.68;;;16.80;99.90;;;16.14;100.00;101711.78;5072892;23;20006;-75
2022/10/02 04:15:18;;;;;;;25.35;5.25;;;16.80;99.90;;;16.21;100.00;101704.78;5074358;23;20010;-75
2022/10/02 04:17:51;;;;;;;19.45;3.70;;;16.80;99.90;;;16.16;100.00;101707.13;5072610;23;20399;-75
2022/10/02 04:20:25;;;;;;;22.17;4.00;;;16.80;99.90;;;16.07;100.00;101710.78;5074245;23;20009;-75
2022/10/02 04:22:41;;;;;;;16.15;4.03;;;16.80;99.90;;;16.10;100.00;101713.09;5090776;23;20005;-75
2022/10/02 04:25:04;;;;;;;21.45;3.63;;;16.80;99.90;;;16.17;100.00;101714.09;5072906;23;20077;-75
2022/10/02 04:27:37;;;;;;;17.85;4.30;;;16.80;99.90;;;16.11;100.00;101709.47;5072835;23;20006;-75
2022/10/02 04:29:50;;;;;;;20.20;4.72;;;16.80;99.90;;;16.11;100.00;101713.94;5072972;23;20431;-74
2022/10/02 04:32:09;;;;;;;20.30;4.35;;;16.80;99.90;;;16.09;100.00;101706.16;5072782;23;20018;-75
2022/10/02 04:34:12;;;;;;;19.95;5.00;;;16.80;99.90;;;16.17;100.00;101719.44;5050197;23;20073;-75
2022/10/02 04:36:13;;;;;;;22.90;5.50;;;16.90;99.90;;;16.17;100.00;101724.75;5085937;23;20016;-75
2022/10/02 04:38:53;;;;;;;24.30;4.40;;;16.90;99.90;;;16.20;100.00;101727.09;5098444;23;20307;-75
2022/10/02 04:41:38;;;;;;;23.73;4.18;;;16.90;99.90;;;16.11;100.00;101720.09;5098541;23;20093;-75
2022/10/02 04:44:21;;;;;;;22.73;4.68;;;16.80;99.90;;;16.17;100.00;101723.91;5073859;23;20006;-75
2022/10/02 04:47:00;;;;;;;20.73;4.80;;;16.90;99.90;;;16.18;100.00;101721.09;5034547;23;20312;-75
2022/10/02 04:49:35;;;;;;;19.63;4.25;;;16.90;99.90;;;16.23;100.00;101729.41;5077422;23;20009;-75
2022/10/02 04:51:57;;;;;;;28.88;5.63;;;16.90;99.90;;;16.12;100.00;101727.09;5097773;23;20009;-75
2022/10/02 04:54:16;;;;;;;20.48;3.70;;;16.80;99.90;;;16.11;100.00;101730.75;5051299;23;20010;-75
2022/10/02 04:57:03;;;;;;;20.15;4.35;;;16.80;99.90;;;16.11;100.00;101735.25;5048354;23;20011;-75
2022/10/02 04:59:16;;;;;;;24.15;4.60;;;16.80;99.90;;;16.09;100.00;101730.09;5098396;23;20012;-75
2022/10/02 05:01:39;;;;;;;18.45;4.93;;;16.80;99.90;;;16.08;100.00;101739.06;5098472;23;20008;-75
2022/10/02 05:03:51;;;;;;;18.90;4.03;;;16.80;99.90;;;16.09;100.00;101745.22;5098393;23;20010;-75
2022/10/02 05:06:10;;;;;;;21.52;4.50;;;16.80;99.90;;;16.10;100.00;101746.91;5071762;23;20018;-75
2022/10/02 05:08:31;;;;;;;14.85;4.13;;;16.80;99.90;;;16.08;100.00;101749.72;5098391;23;20012;-75
2022/10/02 05:10:42;;;;;;;21.23;4.07;;;16.80;99.90;;;16.12;100.00;101748.41;5097588;23;20009;-75
2022/10/02 05:13:16;;;;;;;25.48;5.25;;;16.80;99.90;;;16.17;100.00;101754.03;5098554;23;20377;-75
2022/10/02 05:15:40;;;;;;;16.08;4.00;;;16.80;99.90;;;16.08;100.00;101751.53;5049847;23;20007;-75
2022/10/02 05:18:06;;;;;;;20.60;4.17;;;16.80;99.90;;;16.07;100.00;101755.22;5073475;23;20006;-75
2022/10/02 05:20:39;;;;;;;22.20;4.63;;;16.80;99.90;;;16.11;100.00;101757.38;5099822;23;20229;-75
2022/10/02 05:22:59;;;;;;;23.30;4.75;;;16.80;99.90;;;16.08;100.00;101754.22;5099998;23;20504;-75
2022/10/02 05:25:52;;;;;;;17.35;4.50;;;16.80;99.90;;;16.09;100.00;101761.19;5075870;23;20076;-75
2022/10/02 05:28:05;;;;;;;25.17;5.40;;;16.80;99.90;;;16.10;100.00;101754.91;5053149;23;20479;-75
2022/10/02 05:30:17;;;;;;;19.40;5.38;;;16.80;99.90;;;16.11;100.00;101762.69;5099962;23;20012;-75
2022/10/02 05:32:36;;;;;;;25.23;6.32;;;16.80;99.90;;;16.12;100.00;101759.03;5074343;23;20459;-75
2022/10/02 05:35:16;;;;;;;27.58;5.28;;;16.80;99.90;;;16.17;100.00;101762.03;5099773;23;20010;-75
2022/10/02 05:37:47;;;;;;;22.63;5.68;;;16.80;99.90;;;16.12;100.00;101751.06;5034725;23;20076;-75
2022/10/02 05:40:44;;;;;;;20.42;5.10;;;16.80;99.90;;;16.11;100.00;101741.41;5099847;23;20067;-76
2022/10/02 05:43:30;;;;;;;20.38;4.85;;;16.80;99.90;;;16.12;100.00;101753.72;5057901;23;20010;-75
2022/10/02 05:45:56;;;;;;;20.23;4.72;;;16.80;99.90;;;16.11;100.00;101762.69;5059369;23;20020;-75
2022/10/02 05:48:39;;;;;;;26.65;4.63;;;16.80;99.90;;;16.11;100.00;101765.34;5076837;23;20041;-75
2022/10/02 05:50:41;;;;;;;19.27;4.90;;;16.80;99.90;;;16.14;100.00;101780.16;5016867;23;20021;-75
2022/10/02 05:52:56;;;;;;;22.95;4.72;;;16.80;99.90;;;16.17;100.00;101774.50;5049554;23;20013;-75
2022/10/02 05:55:18;;;;;;;;;;;16.80;99.90;;;16.11;100.00;101769.84;5074237;23;20010;-75
2022/10/02 05:57:57;;;;;;;30.13;5.38;;;16.90;99.90;;;16.14;100.00;101764.19;5099615;23;19904;-75
2022/10/02 06:00:22;;;;;;;37.45;6.32;;;16.90;99.90;;;16.21;100.00;101766.03;5074389;23;20009;-75
2022/10/02 06:02:43;;;;;;;29.20;5.40;;;16.90;99.90;;;16.21;100.00;101758.03;5073899;23;20018;-75
2022/10/02 06:04:59;;;;;;;31.20;6.32;;;16.90;99.90;;;16.20;100.00;101764.34;5075273;23;20006;-75
2022/10/02 06:07:19;;;;;;;27.55;6.53;;;16.90;99.90;;;16.20;100.00;101767.00;5074623;23;20006;-75
2022/10/02 06:09:28;;;;;;;35.72;6.70;;;16.90;99.90;;;16.18;100.00;101766.38;5073734;23;20030;-75
2022/10/02 06:11:58;;;;;;;32.85;6.32;;;16.90;99.90;;;16.23;100.00;101766.69;5074090;23;20041;-75
2022/10/02 06:14:26;;;;;;;30.35;5.70;;;16.90;99.90;;;16.26;100.00;101777.00;5076140;23;20006;-75
2022/10/02 06:16:45;;;;;;;41.28;6.70;;;16.90;99.90;;;16.26;100.00;101779.66;5051649;23;20070;-75
2022/10/02 06:18:59;;;;;;;27.88;6.68;;;16.90;99.90;;;16.23;100.00;101771.16;5073287;23;20013;-75
2022/10/02 06:21:29;;;;;;;35.90;5.55;;;17.00;99.90;;;16.24;100.00;101773.69;5074696;23;20340;-74
2022/10/02 06:23:49;;;;;;;27.48;5.03;;;17.00;99.90;;;16.24;100.00;101787.00;5077613;23;20029;-75
2022/10/02 06:26:24;;;;;;;29.95;5.40;;;16.90;99.90;;;16.25;100.00;101793.13;5074016;23;20138;-75
2022/10/02 06:29:06;;;;;;;18.87;4.57;;;16.90;99.90;;;16.21;100.00;101790.00;5075156;23;20002;-75
2022/10/02 06:31:46;;;;;;;22.63;5.80;;;16.90;99.90;;;16.25;100.00;101791.28;5099608;23;20016;-75
2022/10/02 06:33:47;;;;;;;25.58;5.82;;;16.90;99.90;;;16.29;100.00;101803.28;5048682;23;20017;-75
2022/10/02 06:36:20;;;;;;;25.85;5.10;;;17.00;99.90;;;16.32;100.00;101796.78;5098942;23;20390;-75
2022/10/02 06:38:44;;;;;;;26.80;5.55;;;17.00;99.90;;;16.27;100.00;101788.47;5099542;23;20037;-75
2022/10/02 06:40:50;;;;;;;32.92;6.13;;;16.90;99.90;;;16.33;100.00;101788.66;5049152;23;20371;-75
2022/10/02 06:43:19;;;;;;;29.85;5.22;;;16.90;99.90;;;16.32;100.00;101796.78;5097849;23;20032;-75
2022/10/02 06:45:45;;;;;;;35.83;5.80;;;17.00;99.90;;;16.32;100.00;101792.31;5099375;23;20013;-75
2022/10/02 06:48:21;;;;;;;29.05;5.30;;;17.00;99.90;;;16.35;100.00;101791.97;5099466;23;21061;-75
2022/10/02 06:50:48;;;;;;;23.55;5.03;;;17.00;99.90;;;16.44;100.00;101793.63;5043006;23;20033;-75
2022/10/02 06:53:24;;;;;;;31.63;6.45;;;17.10;99.90;;;16.43;100.00;101786.63;5099326;23;20338;-75
2022/10/02 06:56:02;;;;;;;26.75;5.82;;;17.20;99.90;;;16.48;100.00;101788.81;5099298;23;20033;-75
2022/10/02 06:58:15;;;;;;;27.80;6.00;;;17.20;99.90;;;16.44;100.00;101790.97;5014427;23;20111;-75
2022/10/02 07:00:18;;;;;;;31.05;6.28;;;17.10;99.90;;;16.46;100.00;101798.75;5072845;23;20010;-75
2022/10/02 07:02:32;;;;;;;25.27;6.40;;;17.10;99.90;;;16.46;100.00;101791.63;5073454;23;20013;-75
2022/10/02 07:04:52;;;;;;;29.63;5.57;;;17.10;99.90;;;16.52;100.00;101798.94;5099238;23;20059;-75
2022/10/02 07:07:24;;;;;;;27.02;6.55;;;17.20;99.90;;;16.56;100.00;101804.78;5099147;23;20009;-75
2022/10/02 07:09:44;;;;;;;21.13;6.07;;;17.20;99.90;;;16.67;100.00;101811.59;5099105;23;20010;-75
2022/10/02 07:12:12;;;;;;;25.25;4.65;;;17.30;99.90;;;16.69;100.00;101806.94;5097440;23;20010;-75
2022/10/02 07:14:54;;;;;;;25.45;6.05;;;17.30;99.90;;;16.73;100.00;101805.56;5099130;23;20009;-75
2022/10/02 07:17:13;;;;;;;29.02;5.40;;;17.40;99.90;;;16.70;100.00;101798.75;5098928;23;20005;-75
2022/10/02 07:19:51;;;;;;;20.23;4.38;;;17.40;99.90;;;16.73;100.00;101794.91;5099081;23;20020;-75
2022/10/02 07:22:42;;;;;;;25.60;4.95;;;17.40;99.90;;;16.79;100.00;101797.75;5097478;23;20005;-76
2022/10/02 07:25:00;;;;;;;19.38;3.92;;;17.50;99.90;;;16.85;100.00;101804.22;5043759;23;20080;-75
2022/10/02 07:27:36;;;;;;;21.67;5.35;;;17.50;99.90;;;16.89;100.00;101794.88;5098994;23;20021;-75
2022/10/02 07:30:00;;;;;;;19.05;4.72;;;17.60;99.90;;;16.90;100.00;101804.56;5099050;23;20002;-75
2022/10/02 07:32:35;;;;;;;26.52;5.63;;;17.60;99.90;;;16.91;100.00;101803.53;5099000;23;20011;-75
2022/10/02 07:35:02;;;;;;;20.20;3.90;;;17.60;99.90;;;16.92;100.00;101802.53;5098827;23;20339;-75
2022/10/02 07:37:42;;;;;;;21.13;5.07;;;17.60;99.90;;;16.88;100.00;101803.88;5098460;23;20065;-75
2022/10/02 07:40:05;;;;;;;27.63;5.40;;;17.60;99.90;;;16.92;100.00;101797.22;5098445;23;20008;-75
2022/10/02 07:42:26;;;;;;;20.13;4.10;;;17.60;99.90;;;17.00;100.00;101795.34;5075221;23;20001;-75
2022/10/02 07:45:09;;;;;;;17.55;3.88;;;17.70;99.90;;;17.05;100.00;101779.66;5074581;23;20013;-75
2022/10/02 07:47:22;;;;;;;22.83;4.03;;;17.80;99.90;;;17.31;100.00;101790.06;5091632;23;20010;-75
2022/10/02 07:49:54;;;;;;;17.35;3.90;;;17.90;99.90;;;17.37;100.00;101789.34;5098999;23;20012;-75
2022/10/02 07:52:35;;;;;;;16.23;3.47;;;18.00;99.90;;;17.51;100.00;101795.78;5098860;23;20009;-75
2022/10/02 07:54:57;;;;;;;14.48;3.40;;;18.10;99.90;;;17.55;100.00;101811.28;5085086;23;20009;-75
2022/10/02 07:57:12;;;;;;;18.77;4.47;;;18.20;99.90;;;17.58;100.00;101802.94;5098858;23;20081;-75
2022/10/02 07:59:17;;;;;;;15.07;3.83;;;18.20;99.90;;;17.57;100.00;101808.44;5074859;23;20009;-75
2022/10/02 08:01:24;;;;;;;17.80;4.03;;;18.30;99.90;;;17.51;100.00;101798.44;5048469;23;20014;-75
2022/10/02 08:03:33;;;;;;;17.58;4.60;;;18.30;99.90;;;17.47;100.00;101792.63;5072818;23;20028;-75
2022/10/02 08:05:45;;;;;;;18.45;3.88;;;18.30;99.90;;;17.54;100.00;101806.97;5072595;23;20002;-76
2022/10/02 08:07:51;;;;;;;16.42;3.45;;;18.20;99.90;;;17.63;100.00;101802.41;5073328;23;20002;-75
2022/10/02 08:09:54;;;;;;;17.58;4.05;;;18.30;99.90;;;17.66;100.00;101807.38;5073710;23;20009;-76
2022/10/02 08:12:16;;;;;;;14.88;3.90;;;18.30;99.90;;;17.65;100.00;101793.22;5073134;23;20001;-76
2022/10/02 08:14:40;;;;;;;18.98;3.40;;;18.40;99.90;;;17.69;100.00;101807.88;5074527;23;20085;-76
2022/10/02 08:16:50;;;;;;;21.90;3.55;;;18.40;99.90;;;17.67;100.00;101801.88;5076678;23;20016;-75
2022/10/02 08:19:18;;;;;;;17.13;4.15;;;18.40;99.90;;;17.71;100.00;101810.38;5073038;23;20006;-75
2022/10/02 08:21:23;;;;;;;24.55;5.05;;;18.40;99.90;;;17.74;100.00;101817.19;5079967;23;20005;-76
2022/10/02 08:23:41;;;;;;;15.63;3.55;;;18.50;99.90;;;17.85;100.00;101819.44;5073319;23;20045;-75
2022/10/02 08:25:49;;;;;;;17.48;3.60;;;18.50;99.90;;;17.91;100.00;101814.25;5048585;23;20002;-76
2022/10/02 08:28:03;;;;;;;19.70;4.28;;;18.60;99.90;;;17.96;100.00;101816.38;5072748;23;20002;-76
2022/10/02 08:30:11;;;;;;;20.88;4.40;;;18.60;99.90;;;18.06;100.00;101819.63;5073242;23;20084;-75
2022/10/02 08:32:13;;;;;;;23.52;4.00;;;18.70;99.90;;;18.05;100.00;101821.47;5073324;23;20010;-76
2022/10/02 08:34:20;;;;;;;16.15;4.07;;;18.80;99.90;;;18.23;100.00;101813.16;5098725;23;20009;-75
2022/10/02 08:37:15;;;;;;;18.58;4.57;;;18.90;99.90;;;18.64;100.00;101821.63;5072256;23;20070;-76
2022/10/02 08:39:49;;;;;;;20.63;5.03;;;19.20;99.90;;;18.58;100.00;101828.56;4994038;23;20008;-76
2022/10/02 08:42:53;;;;;;;19.40;4.50;;;19.40;99.90;;;18.77;100.00;101829.88;5089703;23;20088;-76
2022/10/02 08:45:32;;;;;;;17.70;4.93;;;19.50;99.90;;;18.93;100.00;101820.84;5079996;23;20446;-76
2022/10/02 08:47:58;;;;;;;17.83;4.00;;;19.60;99.90;;;18.77;100.00;101825.34;5098727;23;20016;-76
2022/10/02 08:50:47;;;;;;;21.02;3.90;;;19.70;99.90;;;18.93;100.00;101832.38;5098276;23;20061;-75
2022/10/02 08:53:26;;;;;;;24.00;4.45;;;19.70;99.90;;;18.95;100.00;101825.00;5075069;23;20406;-75
2022/10/02 08:56:10;;;;;;;27.20;5.63;;;19.70;99.90;;;19.17;100.00;101831.28;5098557;23;20009;-75
2022/10/02 08:58:52;;;;;;;19.88;4.22;;;19.80;99.90;;;19.18;100.00;101831.06;5066265;23;20449;-76
2022/10/02 09:01:18;;;;;;;13.05;3.42;;;19.80;99.90;;;19.19;100.00;101832.75;5000055;23;20071;-75
2022/10/02 09:03:37;;;;;;;21.55;5.57;;;19.80;99.90;;;18.97;100.00;101833.66;5053672;23;20016;-75
2022/10/02 09:06:09;;;;;;;17.92;3.45;;;19.80;99.90;;;19.06;100.00;101839.75;5098113;23;20386;-76
2022/10/02 09:09:02;;;;;;;18.50;3.90;;;19.80;99.90;;;19.25;100.00;101845.38;5072440;23;20075;-75
2022/10/02 09:11:44;;;;;;;18.65;4.53;;;20.00;99.90;;;19.27;100.00;101835.31;5072312;23;20010;-75
2022/10/02 09:13:57;;;;;;;17.88;3.72;;;20.00;99.90;;;19.30;100.00;101839.44;5098176;23;20006;-75
2022/10/02 09:16:39;;;;;;;18.20;4.80;;;20.10;99.90;;;19.42;100.00;101840.66;5098447;23;20036;-76
2022/10/02 09:19:40;;;;;;;14.90;3.42;;;20.10;99.90;;;19.78;100.00;101844.19;5064050;23;20010;-76
2022/10/02 09:22:02;;;;;;;20.52;4.38;;;20.40;99.90;;;19.62;100.00;101843.59;5072093;23;20033;-76
2022/10/02 09:24:35;;;;;;;15.40;3.83;;;20.50;99.90;;;19.87;100.00;101855.59;5049873;23;20017;-75
2022/10/02 09:27:05;;;;;;;23.17;3.95;;;20.60;99.90;;;19.72;100.00;101842.25;5098746;23;20013;-76
2022/10/02 09:30:01;;;;;;;20.55;3.20;;;20.60;99.90;;;19.65;100.00;101844.03;5051573;23;20061;-76
2022/10/02 09:32:34;;;;;;;19.52;4.60;;;20.60;99.90;;;19.70;100.00;101851.50;5098269;23;20005;-76
2022/10/02 09:35:17;;;;;;;17.13;3.60;;;20.60;99.90;;;19.69;100.00;101837.28;5098314;23;20010;-76